Time;durP1;ratioP1;P1;durP2;ratioP2;P2;SDS_P1;SDS_P2;PMS_P1;PMS_P2;Temp;Humidity;BMP_temperature;BMP_pressure;BME280_temperature;BME280_humidity;BME280_pressure;Samples;Min_cycle;Max_cycle;Signal;HPM_P1;HPM_P2
2022/05/22 00:00:36;;;;;;;8.13;3.53;;;20.80;84.90;;;;;;5009221;28;20474;-71
2022/05/22 00:03:03;;;;;;;6.37;3.70;;;20.80;84.90;;;;;;5012544;28;20431;-71
2022/05/22 00:05:29;;;;;;;5.10;4.00;;;20.80;85.00;;;;;;5012840;28;20537;-71
2022/05/22 00:08:00;;;;;;;3.70;3.40;;;20.80;85.00;;;;;;5012660;28;20431;-71
2022/05/22 00:10:28;;;;;;;2.90;2.70;;;20.80;85.00;;;;;;5013827;28;20446;-71
2022/05/22 00:12:54;;;;;;;3.87;3.47;;;20.80;85.00;;;;;;4996594;28;20476;-72
2022/05/22 00:15:20;;;;;;;4.73;3.20;;;20.80;85.00;;;;;;4996763;28;20435;-71
2022/05/22 00:17:54;;;;;;;5.10;3.60;;;20.80;85.00;;;;;;5013847;28;20540;-71
2022/05/22 00:20:22;;;;;;;3.53;2.70;;;20.70;85.00;;;;;;5012684;28;20838;-71
2022/05/22 00:22:48;;;;;;;2.97;2.67;;;20.70;85.00;;;;;;5012641;28;20430;-71
2022/05/22 00:25:15;;;;;;;4.10;3.13;;;20.70;85.00;;;;;;5013931;28;20407;-72
2022/05/22 00:27:44;;;;;;;5.10;3.43;;;20.70;85.00;;;;;;5011832;28;20408;-71
2022/05/22 00:30:14;;;;;;;3.80;3.00;;;20.70;85.10;;;;;;5013658;28;20446;-72
2022/05/22 00:32:41;;;;;;;4.90;3.00;;;20.70;85.00;;;;;;5012486;28;20527;-72
2022/05/22 00:35:11;;;;;;;4.23;3.37;;;20.70;85.00;;;;;;5012572;28;20931;-71
2022/05/22 00:37:40;;;;;;;5.03;3.33;;;20.70;85.00;;;;;;4995756;28;20443;-72
2022/05/22 00:40:09;;;;;;;4.10;3.13;;;20.60;85.00;;;;;;5012148;28;20462;-71
2022/05/22 00:42:35;;;;;;;3.93;3.00;;;20.60;85.00;;;;;;5025772;28;20431;-72
2022/05/22 00:45:07;;;;;;;3.20;2.90;;;20.60;85.00;;;;;;4996431;28;20418;-72
2022/05/22 00:47:33;;;;;;;5.57;3.13;;;20.60;85.00;;;;;;4996362;28;20509;-72
2022/05/22 00:50:09;;;;;;;4.27;2.60;;;20.60;85.00;;;;;;5013258;28;20537;-71
2022/05/22 00:52:53;;;;;;;4.13;3.20;;;20.60;85.00;;;;;;5012308;28;20929;-71
2022/05/22 00:55:25;;;;;;;3.60;3.30;;;20.50;85.00;;;;;;5010252;28;20908;-72
2022/05/22 00:57:59;;;;;;;4.67;3.00;;;20.50;84.90;;;;;;5012138;28;20433;-71
2022/05/22 01:00:32;;;;;;;4.73;3.07;;;20.50;84.90;;;;;;4995735;28;20507;-71
2022/05/22 01:05:48;;;;;;;3.23;2.93;;;20.50;85.00;;;;;;5011281;28;20433;-71
2022/05/22 01:08:20;;;;;;;5.50;3.23;;;20.50;85.00;;;;;;4995992;28;20449;-72
2022/05/22 01:10:55;;;;;;;4.97;3.10;;;20.50;85.00;;;;;;4995472;28;20450;-71
2022/05/22 01:13:32;;;;;;;4.83;3.20;;;20.50;85.00;;;;;;4994646;28;20441;-71
2022/05/22 01:16:03;;;;;;;3.43;2.83;;;20.50;85.00;;;;;;5010797;28;20501;-71
2022/05/22 01:18:44;;;;;;;3.50;2.70;;;20.40;84.90;;;;;;5011565;28;20415;-71
2022/05/22 01:21:18;;;;;;;3.20;2.90;;;20.40;85.00;;;;;;5011405;28;20821;-71
2022/05/22 01:23:44;;;;;;;6.03;2.73;;;20.40;85.00;;;;;;4994957;28;20422;-71
2022/05/22 01:26:21;;;;;;;4.07;2.60;;;20.40;85.00;;;;;;5012356;28;20431;-71
2022/05/22 01:28:54;;;;;;;3.17;2.60;;;20.40;85.00;;;;;;4995420;28;20516;-71
2022/05/22 01:31:23;;;;;;;7.30;2.87;;;20.40;85.00;;;;;;5010987;28;20410;-71
2022/05/22 01:33:52;;;;;;;3.37;3.07;;;20.30;84.90;;;;;;5011344;28;20434;-71
2022/05/22 01:36:23;;;;;;;3.50;2.70;;;20.30;85.00;;;;;;4995291;28;20797;-71
2022/05/22 01:38:53;;;;;;;3.47;2.80;;;20.30;84.90;;;;;;5010731;28;20446;-72
2022/05/22 01:41:21;;;;;;;3.50;2.63;;;20.30;85.10;;;;;;4994141;28;21083;-71
2022/05/22 01:43:53;;;;;;;3.10;2.53;;;20.30;85.00;;;;;;5011170;28;20969;-71
2022/05/22 01:46:22;;;;;;;3.00;2.77;;;20.30;85.10;;;;;;5009049;28;20419;-71
2022/05/22 01:49:03;;;;;;;4.20;2.90;;;20.30;85.10;;;;;;4992945;28;20458;-71
2022/05/22 01:51:35;;;;;;;3.63;2.77;;;20.30;85.10;;;;;;4995026;28;20459;-71
2022/05/22 01:54:04;;;;;;;6.63;3.20;;;20.20;85.00;;;;;;4994662;28;20798;-72
2022/05/22 01:56:34;;;;;;;4.03;3.30;;;20.20;85.00;;;;;;5012378;28;20419;-71
2022/05/22 01:59:03;;;;;;;4.20;2.70;;;20.20;85.00;;;;;;5010745;28;20601;-71
2022/05/22 02:01:51;;;;;;;3.37;2.90;;;20.20;85.10;;;;;;5010410;28;20426;-71
2022/05/22 02:04:19;;;;;;;3.10;2.57;;;20.20;85.00;;;;;;5010959;28;20475;-71
2022/05/22 02:09:31;;;;;;;5.10;3.00;;;20.20;85.10;;;;;;4994897;28;20488;-71
2022/05/22 02:11:57;;;;;;;3.50;2.90;;;20.20;85.10;;;;;;5010481;28;20449;-72
2022/05/22 02:14:26;;;;;;;8.33;2.80;;;20.20;85.10;;;;;;4994359;28;20583;-71
2022/05/22 02:17:05;;;;;;;3.67;2.90;;;20.10;85.00;;;;;;5010518;28;20414;-72
2022/05/22 02:19:39;;;;;;;3.80;2.57;;;20.10;85.00;;;;;;5010995;28;20476;-72
2022/05/22 02:22:05;;;;;;;3.23;2.50;;;20.10;85.10;;;;;;5010425;28;20426;-71
2022/05/22 02:24:36;;;;;;;4.87;3.00;;;20.10;85.10;;;;;;4994304;28;20444;-71
2022/05/22 02:27:12;;;;;;;6.77;3.30;;;20.10;85.10;;;;;;4994390;28;20455;-71
2022/05/22 02:29:39;;;;;;;2.83;2.50;;;20.10;85.10;;;;;;5006609;28;20480;-71
2022/05/22 02:32:05;;;;;;;5.37;2.60;;;20.00;85.00;;;;;;5011365;28;20413;-71
2022/05/22 02:34:33;;;;;;;3.40;2.47;;;20.00;85.00;;;;;;5010556;28;20508;-71
2022/05/22 02:37:01;;;;;;;4.70;2.90;;;20.00;85.00;;;;;;5011097;28;20436;-71
2022/05/22 02:39:32;;;;;;;3.20;2.43;;;20.00;85.00;;;;;;5009015;28;20466;-72
2022/05/22 02:42:07;;;;;;;4.33;3.00;;;20.00;85.10;;;;;;5001528;28;20457;-72
2022/05/22 02:44:33;;;;;;;3.67;2.73;;;20.00;85.00;;;;;;4991152;28;20416;-72
2022/05/22 02:47:00;;;;;;;4.00;2.90;;;20.00;85.10;;;;;;5010946;28;20515;-71
2022/05/22 02:49:33;;;;;;;4.53;2.47;;;20.00;85.10;;;;;;4977001;28;20459;-71
2022/05/22 02:52:02;;;;;;;3.40;2.67;;;20.00;85.10;;;;;;5014612;28;20413;-71
2022/05/22 02:54:30;;;;;;;3.73;2.90;;;19.90;85.00;;;;;;5010375;28;20476;-71
2022/05/22 02:57:04;;;;;;;4.80;2.73;;;19.90;85.10;;;;;;4978780;28;20422;-71
2022/05/22 02:59:38;;;;;;;4.17;2.77;;;19.90;85.00;;;;;;5009309;28;20476;-71
2022/05/22 03:02:14;;;;;;;3.43;3.00;;;19.90;85.00;;;;;;4994537;28;20497;-72
2022/05/22 03:04:43;;;;;;;3.93;2.60;;;19.90;85.00;;;;;;4993797;28;21057;-71
2022/05/22 03:07:15;;;;;;;3.50;2.43;;;19.90;85.10;;;;;;4993889;28;20437;-71
2022/05/22 03:09:45;;;;;;;2.60;2.37;;;19.80;85.00;;;;;;5009408;28;20441;-71
2022/05/22 03:12:23;;;;;;;4.83;2.70;;;19.90;85.00;;;;;;5009039;28;20567;-72
2022/05/22 03:14:57;;;;;;;3.37;2.37;;;19.80;85.00;;;;;;4993793;28;20420;-71
2022/05/22 03:17:27;;;;;;;3.90;2.30;;;19.80;85.00;;;;;;4994297;28;20472;-72
2022/05/22 03:20:00;;;;;;;7.93;2.67;;;19.80;85.00;;;;;;4993371;28;20513;-71
2022/05/22 03:22:29;;;;;;;3.43;2.83;;;19.80;85.00;;;;;;5009119;28;20440;-71
2022/05/22 03:24:58;;;;;;;2.83;2.53;;;19.80;85.00;;;;;;4993848;28;20429;-71
2022/05/22 03:27:28;;;;;;;3.50;2.67;;;19.80;85.10;;;;;;4993731;28;21049;-71
2022/05/22 03:29:54;;;;;;;5.00;3.00;;;19.80;85.00;;;;;;5009116;28;20471;-71
2022/05/22 03:32:20;;;;;;;3.93;2.60;;;19.80;85.00;;;;;;5010709;28;20501;-71
2022/05/22 03:34:48;;;;;;;4.47;2.60;;;19.70;84.90;;;;;;5010022;28;20435;-71
2022/05/22 03:37:17;;;;;;;9.13;2.70;;;19.70;84.90;;;;;;5009175;28;20425;-72
2022/05/22 03:39:43;;;;;;;5.07;3.27;;;19.70;84.90;;;;;;5012969;28;20525;-71
2022/05/22 03:42:11;;;;;;;3.13;2.80;;;19.70;84.90;;;;;;5012689;28;20433;-71
2022/05/22 03:44:41;;;;;;;3.30;2.50;;;19.70;85.00;;;;;;4996698;28;20434;-71
2022/05/22 03:47:07;;;;;;;2.87;2.40;;;19.70;84.90;;;;;;4997279;28;20425;-71
2022/05/22 03:49:42;;;;;;;4.50;2.77;;;19.70;85.00;;;;;;5014373;28;20521;-71
2022/05/22 03:52:08;;;;;;;3.37;2.40;;;19.70;85.00;;;;;;5012837;28;20433;-71
2022/05/22 03:54:34;;;;;;;3.87;2.50;;;19.60;84.90;;;;;;5013028;28;20422;-71
2022/05/22 03:57:06;;;;;;;5.87;2.53;;;19.60;84.90;;;;;;5009758;28;20441;-72
2022/05/22 03:59:40;;;;;;;3.17;2.50;;;19.60;84.90;;;;;;4996824;28;20998;-71
2022/05/22 04:02:10;;;;;;;3.30;2.93;;;19.60;84.90;;;;;;5012737;28;20951;-71
2022/05/22 04:04:40;;;;;;;4.07;2.93;;;19.60;85.00;;;;;;4996918;28;20444;-71
2022/05/22 04:07:25;;;;;;;5.60;2.47;;;19.60;84.90;;;;;;4996257;28;20459;-72
2022/05/22 04:09:56;;;;;;;3.10;2.57;;;19.60;85.00;;;;;;4996815;28;20447;-71
2022/05/22 04:12:35;;;;;;;2.80;2.60;;;19.50;84.90;;;;;;4997968;28;20500;-71
2022/05/22 04:15:03;;;;;;;4.07;2.73;;;19.50;84.80;;;;;;5013080;28;20922;-71
2022/05/22 04:17:29;;;;;;;3.37;2.47;;;19.50;84.80;;;;;;5012697;28;20425;-71
2022/05/22 04:20:08;;;;;;;3.73;2.63;;;19.50;84.80;;;;;;4996192;28;20473;-71
2022/05/22 04:25:11;;;;;;;2.87;2.30;;;19.50;84.90;;;;;;4996407;28;20432;-71
2022/05/22 04:25:22;;;;;;;2.80;2.50;;;19.50;84.90;;;;;;5012557;28;20483;-71
2022/05/22 04:27:50;;;;;;;3.23;2.20;;;19.50;84.90;;;;;;5012530;28;20438;-71
2022/05/22 04:30:20;;;;;;;2.43;2.00;;;19.40;84.80;;;;;;5012326;28;20448;-71
2022/05/22 04:32:53;;;;;;;4.80;2.60;;;19.40;84.80;;;;;;4996373;28;20839;-71
2022/05/22 04:35:20;;;;;;;3.17;2.60;;;19.40;84.80;;;;;;4996338;28;20492;-71
2022/05/22 04:37:47;;;;;;;2.73;2.33;;;19.40;84.90;;;;;;5012427;28;20444;-71
2022/05/22 04:40:14;;;;;;;3.20;2.60;;;19.40;84.80;;;;;;5011680;28;20470;-71
2022/05/22 04:42:41;;;;;;;2.80;2.23;;;19.40;84.90;;;;;;4996122;28;20456;-71
2022/05/22 04:45:11;;;;;;;2.67;2.40;;;19.40;84.90;;;;;;5011827;28;20425;-71
2022/05/22 04:47:58;;;;;;;3.63;2.37;;;19.40;84.90;;;;;;5010970;28;20978;-71
2022/05/22 04:50:34;;;;;;;4.40;2.30;;;19.40;85.00;;;;;;5012022;28;20445;-71
2022/05/22 04:53:25;;;;;;;4.00;2.63;;;19.40;85.00;;;;;;5011892;28;20542;-72
2022/05/22 04:55:58;;;;;;;4.23;2.33;;;19.30;84.90;;;;;;5010168;28;20423;-71
2022/05/22 04:58:27;;;;;;;3.73;2.43;;;19.30;84.90;;;;;;4995854;28;20439;-71
2022/05/22 05:00:59;;;;;;;6.07;2.63;;;19.30;85.00;;;;;;5011437;28;20483;-71
2022/05/22 05:03:36;;;;;;;5.67;2.60;;;19.30;85.00;;;;;;5013138;28;20470;-71
2022/05/22 05:06:07;;;;;;;3.20;2.20;;;19.30;85.00;;;;;;5012062;28;20421;-72
2022/05/22 05:08:37;;;;;;;2.77;2.23;;;19.30;85.90;;;;;;5012143;28;21018;-71
2022/05/22 05:11:11;;;;;;;2.90;2.50;;;19.30;85.10;;;;;;5011256;28;20473;-72
2022/05/22 05:13:43;;;;;;;4.37;2.70;;;19.20;85.00;;;;;;5011005;28;20848;-71
2022/05/22 05:16:12;;;;;;;4.20;2.30;;;19.20;85.10;;;;;;5010793;28;20491;-72
2022/05/22 05:19:01;;;;;;;3.30;2.00;;;19.20;85.10;;;;;;5011724;28;20441;-71
2022/05/22 05:21:28;;;;;;;3.20;2.40;;;19.30;85.30;;;;;;4995158;28;20435;-71
2022/05/22 05:23:58;;;;;;;3.53;2.20;;;19.20;85.30;;;;;;5011507;28;20421;-71
2022/05/22 05:26:26;;;;;;;4.53;2.17;;;19.20;85.30;;;;;;5011694;28;20440;-71
2022/05/22 05:28:55;;;;;;;2.43;2.07;;;19.20;85.30;;;;;;5011304;28;20437;-71
2022/05/22 05:31:30;;;;;;;2.70;2.37;;;19.20;85.30;;;;;;4995746;28;20496;-71
2022/05/22 05:33:56;;;;;;;3.50;2.50;;;19.20;85.30;;;;;;5010981;28;20507;-71
2022/05/22 05:36:40;;;;;;;2.80;2.53;;;19.20;85.40;;;;;;5011436;28;20404;-71
2022/05/22 05:39:09;;;;;;;2.87;2.00;;;19.20;85.50;;;;;;5011615;28;20806;-71
2022/05/22 05:42:00;;;;;;;3.33;2.13;;;19.20;85.60;;;;;;5010746;28;20454;-71
2022/05/22 05:44:35;;;;;;;2.43;2.23;;;19.20;85.60;;;;;;5012854;28;20850;-71
2022/05/22 05:47:27;;;;;;;2.63;2.20;;;19.20;85.70;;;;;;5010876;28;20490;-71
2022/05/22 05:50:12;;;;;;;2.73;1.93;;;19.10;85.60;;;;;;5011456;28;20550;-71
2022/05/22 05:53:00;;;;;;;2.87;2.67;;;19.10;85.70;;;;;;5007796;28;20432;-71
2022/05/22 05:55:43;;;;;;;3.50;2.37;;;19.10;85.90;;;;;;5012474;28;20466;-71
2022/05/22 05:58:27;;;;;;;2.80;2.47;;;19.10;85.90;;;;;;5012137;28;20417;-71
2022/05/22 06:01:09;;;;;;;3.10;2.70;;;19.10;85.90;;;;;;5011397;28;20490;-71
2022/05/22 06:03:37;;;;;;;3.40;2.63;;;19.10;86.00;;;;;;4994518;28;21015;-71
2022/05/22 06:06:09;;;;;;;3.73;2.67;;;19.10;86.10;;;;;;4994519;28;20531;-71
2022/05/22 06:08:39;;;;;;;3.10;2.73;;;19.10;86.10;;;;;;5010589;28;20836;-71
2022/05/22 06:11:34;;;;;;;4.70;2.33;;;19.10;86.10;;;;;;5005925;28;20424;-71
2022/05/22 06:14:07;;;;;;;5.13;2.87;;;19.10;87.10;;;;;;5010823;28;20475;-71
2022/05/22 06:16:39;;;;;;;5.33;3.07;;;19.10;86.30;;;;;;5010451;28;20477;-71
2022/05/22 06:19:15;;;;;;;4.70;2.73;;;19.10;86.40;;;;;;5010668;28;20478;-71
2022/05/22 06:21:44;;;;;;;3.53;2.50;;;19.10;86.50;;;;;;5010218;28;20918;-71
2022/05/22 06:24:16;;;;;;;3.37;2.20;;;19.10;86.40;;;;;;4990632;28;20487;-71
2022/05/22 06:27:06;;;;;;;3.30;2.67;;;19.10;86.50;;;;;;5008771;28;20735;-71
2022/05/22 06:29:57;;;;;;;4.30;2.60;;;19.10;86.50;;;;;;5010453;28;20489;-71
2022/05/22 06:32:49;;;;;;;2.83;2.57;;;19.10;86.50;;;;;;4991702;28;20506;-71
2022/05/22 06:35:46;;;;;;;3.40;2.33;;;19.10;86.60;;;;;;5105588;23;20513;-69
2022/05/22 06:41:57;;;;;;;3.47;2.57;;;19.10;86.80;;;;;;4987711;28;20861;-69
2022/05/22 06:45:03;;;;;;;5.03;2.80;;;19.10;86.80;;;;;;4960795;28;20423;-69
2022/05/22 06:47:58;;;;;;;2.87;2.63;;;19.10;86.70;;;;;;4996408;28;20486;-69
2022/05/22 06:50:44;;;;;;;4.43;2.50;;;19.10;86.80;;;;;;4996595;28;20440;-70
2022/05/22 06:53:33;;;;;;;4.40;2.60;;;19.10;86.90;;;;;;4989111;28;20428;-69
2022/05/22 06:56:20;;;;;;;4.57;2.40;;;19.10;86.90;;;;;;5012318;28;20777;-69
2022/05/22 06:59:01;;;;;;;4.97;3.00;;;19.10;87.10;;;;;;5007208;28;20440;-70
2022/05/22 07:01:38;;;;;;;3.73;2.50;;;19.10;87.20;;;;;;4995226;28;20472;-69
2022/05/22 07:04:22;;;;;;;4.17;2.43;;;19.10;87.40;;;;;;4990795;28;20438;-69
2022/05/22 07:07:04;;;;;;;5.50;3.10;;;19.10;87.50;;;;;;4995867;28;20464;-70
2022/05/22 07:09:39;;;;;;;3.30;3.00;;;19.10;87.60;;;;;;5003086;28;20523;-70
2022/05/22 07:12:15;;;;;;;3.10;2.23;;;19.10;87.50;;;;;;5000048;28;20856;-70
2022/05/22 07:15:05;;;;;;;4.83;2.93;;;19.10;87.50;;;;;;5004467;28;20448;-68
2022/05/22 07:17:54;;;;;;;4.73;3.10;;;19.10;87.50;;;;;;4986776;28;20425;-69
2022/05/22 07:20:49;;;;;;;3.00;2.70;;;19.20;87.70;;;;;;5004738;28;20476;-70
2022/05/22 07:23:33;;;;;;;2.93;2.60;;;19.20;87.60;;;;;;4979009;28;20983;-69
2022/05/22 07:26:31;;;;;;;4.23;2.40;;;19.20;87.60;;;;;;4961017;28;20443;-70
2022/05/22 07:29:09;;;;;;;3.63;2.73;;;19.20;87.50;;;;;;5030013;28;20840;-69
2022/05/22 07:31:54;;;;;;;3.77;2.33;;;19.20;87.50;;;;;;5030441;28;20419;-70
2022/05/22 07:34:42;;;;;;;3.70;2.57;;;19.20;87.50;;;;;;5002142;28;20449;-70
2022/05/22 07:37:41;;;;;;;4.70;2.50;;;19.20;87.50;;;;;;4960293;28;20441;-70
2022/05/22 07:40:31;;;;;;;3.50;2.60;;;19.20;87.50;;;;;;4993507;28;20475;-70
2022/05/22 07:43:22;;;;;;;4.23;2.60;;;19.30;87.70;;;;;;5014477;28;20496;-70
2022/05/22 07:46:08;;;;;;;5.37;2.40;;;19.30;87.70;;;;;;5017881;28;20419;-69
2022/05/22 07:48:51;;;;;;;5.10;2.83;;;19.30;87.80;;;;;;4996985;28;20452;-70
2022/05/22 07:51:56;;;;;;;4.17;2.43;;;19.30;88.00;;;;;;4976245;28;20453;-70
2022/05/22 07:54:41;;;;;;;4.50;2.80;;;19.40;87.90;;;;;;4976760;28;20460;-70
2022/05/22 07:57:27;;;;;;;3.83;2.73;;;19.40;87.90;;;;;;4976231;28;20459;-69
2022/05/22 08:00:06;;;;;;;5.60;2.70;;;19.40;87.90;;;;;;4994254;28;20461;-70
2022/05/22 08:02:50;;;;;;;4.97;2.70;;;19.40;88.00;;;;;;4996976;28;20425;-69
2022/05/22 08:05:19;;;;;;;2.73;2.40;;;19.40;87.90;;;;;;4995272;28;20406;-69
2022/05/22 08:07:50;;;;;;;3.77;2.40;;;19.40;87.90;;;;;;4995901;28;20820;-70
2022/05/22 08:10:29;;;;;;;5.23;2.43;;;19.50;88.00;;;;;;4999640;28;20452;-70
2022/05/22 08:13:01;;;;;;;3.43;2.50;;;19.50;88.00;;;;;;4996358;28;20783;-69
2022/05/22 08:15:33;;;;;;;4.87;2.80;;;19.50;87.80;;;;;;5011744;28;20456;-70
2022/05/22 08:18:16;;;;;;;4.33;2.33;;;19.50;87.70;;;;;;4990171;28;20538;-70
2022/05/22 08:20:43;;;;;;;2.33;2.13;;;19.50;87.60;;;;;;5012068;28;20464;-69
2022/05/22 08:23:18;;;;;;;3.60;2.47;;;19.50;87.60;;;;;;5011887;28;20416;-70
2022/05/22 08:25:48;;;;;;;4.53;2.70;;;19.50;87.60;;;;;;4996973;28;20418;-70
2022/05/22 08:28:16;;;;;;;6.70;2.63;;;19.60;87.60;;;;;;4992871;28;20425;-70
2022/05/22 08:30:47;;;;;;;2.83;2.30;;;19.60;87.60;;;;;;5012103;28;20457;-70
2022/05/22 08:33:16;;;;;;;4.00;2.60;;;19.60;87.60;;;;;;5000246;28;20568;-70
2022/05/22 08:35:43;;;;;;;6.87;2.47;;;19.60;87.50;;;;;;5012117;28;20449;-70
2022/05/22 08:38:10;;;;;;;4.70;2.30;;;19.60;87.50;;;;;;5011858;28;20476;-70
2022/05/22 08:41:02;;;;;;;4.57;2.57;;;19.60;87.40;;;;;;5012567;28;20810;-70
2022/05/22 08:43:39;;;;;;;4.40;2.50;;;19.70;87.40;;;;;;4991918;28;20476;-70
2022/05/22 08:46:11;;;;;;;3.60;2.53;;;19.70;87.40;;;;;;4977449;28;20413;-70
2022/05/22 08:48:57;;;;;;;4.50;3.00;;;19.70;87.30;;;;;;5021824;28;20495;-70
2022/05/22 08:51:44;;;;;;;4.50;2.50;;;19.70;87.40;;;;;;5028894;28;20433;-69
2022/05/22 08:54:27;;;;;;;2.93;2.60;;;19.70;87.40;;;;;;4998306;28;20912;-70
2022/05/22 08:59:48;;;;;;;3.67;2.57;;;19.80;87.60;;;;;;5013120;28;20747;-69
2022/05/22 09:02:21;;;;;;;6.50;3.53;;;19.80;87.60;;;;;;4995613;28;20432;-70
2022/05/22 09:04:57;;;;;;;5.33;3.03;;;19.80;87.50;;;;;;4994839;28;20421;-70
2022/05/22 09:07:23;;;;;;;4.40;3.13;;;19.80;87.50;;;;;;5012375;28;20684;-70
2022/05/22 09:10:19;;;;;;;3.40;2.60;;;19.90;87.60;;;;;;5008364;28;20561;-72
2022/05/22 09:12:54;;;;;;;7.17;2.30;;;19.90;87.50;;;;;;4988700;28;20476;-72
2022/05/22 09:15:29;;;;;;;3.47;2.77;;;19.90;87.40;;;;;;5009390;28;20501;-72
2022/05/22 09:18:13;;;;;;;5.47;2.70;;;19.90;87.40;;;;;;5011623;28;20431;-72
2022/05/22 09:20:55;;;;;;;7.00;2.80;;;20.00;87.50;;;;;;4995239;28;20480;-72
2022/05/22 09:23:26;;;;;;;4.40;2.93;;;20.00;87.50;;;;;;5006032;28;20428;-72
2022/05/22 09:26:21;;;;;;;4.80;2.87;;;20.10;87.60;;;;;;4976553;28;20429;-70
2022/05/22 09:29:02;;;;;;;4.27;3.20;;;20.10;87.50;;;;;;5003433;28;20499;-70
2022/05/22 09:31:50;;;;;;;4.20;2.50;;;20.10;87.40;;;;;;5012199;28;20815;-72
2022/05/22 09:34:19;;;;;;;3.23;2.80;;;20.10;87.40;;;;;;5012503;28;20462;-73
2022/05/22 09:36:51;;;;;;;4.40;2.80;;;20.20;87.50;;;;;;5011838;28;20454;-71
2022/05/22 09:39:38;;;;;;;5.40;2.73;;;20.20;88.30;;;;;;5012587;28;20448;-71
2022/05/22 09:42:27;;;;;;;5.83;3.00;;;20.30;87.60;;;;;;5011249;28;20785;-71
2022/05/22 09:45:31;;;;;;;4.63;3.80;;;20.30;87.60;;;;;;5012484;28;20452;-71
2022/05/22 09:48:24;;;;;;;4.40;2.53;;;20.30;87.60;;;;;;5025728;28;20539;-71
2022/05/22 09:51:03;;;;;;;5.20;2.93;;;20.40;87.50;;;;;;4991920;28;20444;-71
2022/05/22 09:53:41;;;;;;;3.17;2.50;;;20.40;87.40;;;;;;5011917;28;20480;-71
2022/05/22 09:56:37;;;;;;;4.23;2.60;;;20.40;87.30;;;;;;5012112;28;20417;-71
2022/05/22 09:59:19;;;;;;;3.83;2.93;;;20.40;87.30;;;;;;5010531;28;20818;-71
2022/05/22 10:01:52;;;;;;;5.97;3.13;;;20.50;87.30;;;;;;5012862;28;20453;-72
2022/05/22 10:04:36;;;;;;;4.63;2.70;;;20.50;87.20;;;;;;5028280;28;20446;-71
2022/05/22 10:07:02;;;;;;;4.67;2.50;;;20.50;87.10;;;;;;5011762;28;20456;-71
2022/05/22 10:10:00;;;;;;;5.17;3.40;;;20.60;87.20;;;;;;5011477;28;20454;-70
2022/05/22 10:12:43;;;;;;;6.70;3.10;;;20.60;87.00;;;;;;4994682;28;21010;-71
2022/05/22 10:15:15;;;;;;;4.23;3.07;;;20.70;86.90;;;;;;5011557;28;20453;-74
2022/05/22 10:18:00;;;;;;;5.23;2.97;;;20.70;86.80;;;;;;5009707;28;20508;-71
2022/05/22 10:21:06;;;;;;;4.70;3.40;;;20.80;86.80;;;;;;5008740;28;20998;-73
2022/05/22 10:23:50;;;;;;;6.60;3.90;;;20.80;86.70;;;;;;4979222;28;20419;-71
2022/05/22 10:26:22;;;;;;;5.50;3.00;;;20.80;86.50;;;;;;5012552;28;20954;-68
2022/05/22 10:29:18;;;;;;;4.67;2.73;;;20.90;86.50;;;;;;4995062;28;20454;-71
2022/05/22 10:32:26;;;;;;;4.07;3.50;;;20.90;86.40;;;;;;5012728;28;20461;-71
2022/05/22 10:35:01;;;;;;;3.37;2.70;;;21.00;86.50;;;;;;4932453;29;20593;-73
2022/05/22 10:37:32;;;;;;;3.50;2.70;;;21.00;86.50;;;;;;4995863;28;20533;-72
2022/05/22 10:40:13;;;;;;;5.30;3.67;;;21.10;86.60;;;;;;5012014;28;20478;-72
2022/05/22 10:42:45;;;;;;;4.97;3.17;;;21.10;86.50;;;;;;5010344;28;20447;-71
2022/05/22 10:45:18;;;;;;;4.60;3.30;;;21.10;86.40;;;;;;4993356;28;20428;-73
2022/05/22 10:47:46;;;;;;;7.40;3.70;;;21.20;86.40;;;;;;5010462;28;20414;-69
2022/05/22 10:50:19;;;;;;;6.37;3.07;;;21.20;86.10;;;;;;4991604;28;20526;-68
2022/05/22 10:52:46;;;;;;;5.30;3.47;;;21.30;86.00;;;;;;4975573;28;20549;-70
2022/05/22 10:55:29;;;;;;;4.67;3.40;;;21.30;85.90;;;;;;5011555;28;20438;-71
2022/05/22 10:58:14;;;;;;;4.43;3.10;;;21.30;85.70;;;;;;5011566;28;20437;-70
2022/05/22 11:00:57;;;;;;;6.03;2.97;;;21.40;85.60;;;;;;5012084;28;20616;-71
2022/05/22 11:03:32;;;;;;;4.00;3.13;;;21.40;85.30;;;;;;5011087;28;20459;-71
2022/05/22 11:06:01;;;;;;;4.43;3.37;;;21.50;85.10;;;;;;5010638;28;20428;-72
2022/05/22 11:08:34;;;;;;;3.30;2.80;;;21.50;84.90;;;;;;5007860;28;20456;-73
2022/05/22 11:11:19;;;;;;;3.87;3.13;;;21.50;84.70;;;;;;5011700;28;20440;-70
2022/05/22 11:13:51;;;;;;;8.63;3.40;;;21.50;84.60;;;;;;5001154;28;20502;-71
2022/05/22 11:16:28;;;;;;;4.30;3.27;;;21.60;84.70;;;;;;4994394;28;20464;-69
2022/05/22 11:19:12;;;;;;;6.73;4.10;;;21.60;84.50;;;;;;5012013;28;20488;-69
2022/05/22 11:21:56;;;;;;;3.90;3.10;;;21.70;84.30;;;;;;5010729;28;20454;-71
2022/05/22 11:24:22;;;;;;;5.00;3.30;;;21.70;84.10;;;;;;5024176;28;20427;-69
2022/05/22 11:27:12;;;;;;;3.60;3.00;;;21.70;84.00;;;;;;4991110;28;20483;-69
2022/05/22 11:29:55;;;;;;;4.97;3.20;;;21.70;84.00;;;;;;5009974;28;20458;-72
2022/05/22 11:32:41;;;;;;;4.13;3.67;;;21.80;84.20;;;;;;5009729;28;20457;-70
2022/05/22 11:35:47;;;;;;;4.20;3.13;;;21.80;84.10;;;;;;4975153;28;20448;-72
2022/05/22 11:38:34;;;;;;;5.37;3.23;;;21.90;84.20;;;;;;5004200;28;20430;-72
2022/05/22 11:41:09;;;;;;;4.43;3.67;;;21.90;84.10;;;;;;4994269;28;20466;-74
2022/05/22 11:43:44;;;;;;;6.07;3.60;;;21.90;84.10;;;;;;4993811;28;20921;-74
2022/05/22 11:46:16;;;;;;;5.53;3.10;;;21.90;84.10;;;;;;5011048;28;20827;-73
2022/05/22 11:48:45;;;;;;;4.43;3.40;;;21.90;83.90;;;;;;5011543;28;20475;-72
2022/05/22 11:52:03;;;;;;;6.03;3.40;;;21.90;83.80;;;;;;5010572;28;20430;-72
2022/05/22 11:54:51;;;;;;;4.80;3.33;;;22.00;83.80;;;;;;4950988;29;20446;-72
2022/05/22 11:57:41;;;;;;;7.03;3.10;;;22.00;83.80;;;;;;4933437;29;20778;-73
2022/05/22 12:00:12;;;;;;;4.50;3.33;;;22.10;83.80;;;;;;5000802;28;20497;-73
2022/05/22 12:03:01;;;;;;;6.40;3.17;;;22.10;83.80;;;;;;5013961;28;20745;-73
2022/05/22 12:05:43;;;;;;;5.30;3.83;;;22.10;83.80;;;;;;5014352;28;20435;-73
2022/05/22 12:08:36;;;;;;;5.03;3.80;;;22.20;83.80;;;;;;5010147;28;20950;-73
2022/05/22 12:11:29;;;;;;;4.03;3.63;;;22.20;83.70;;;;;;5009830;28;20439;-73
2022/05/22 12:14:33;;;;;;;4.50;3.50;;;22.30;83.80;;;;;;5014153;28;20523;-73
2022/05/22 12:17:10;;;;;;;10.63;4.30;;;22.30;83.80;;;;;;4983597;28;20797;-73
2022/05/22 12:19:54;;;;;;;11.53;4.23;;;22.40;77.50;;;;;;5014696;28;20990;-73
2022/05/22 12:25:22;;;;;;;5.27;2.83;;;22.60;72.00;;;;;;5014595;28;21313;-73
2022/05/22 12:27:49;;;;;;;8.07;4.03;;;22.60;74.40;;;;;;5010181;28;20419;-73
2022/05/22 12:30:24;;;;;;;5.47;3.70;;;22.70;75.00;;;;;;5014295;28;20439;-73
2022/05/22 12:33:11;;;;;;;5.53;3.90;;;22.70;76.20;;;;;;5010483;28;20445;-73
2022/05/22 12:35:42;;;;;;;7.10;3.37;;;22.80;75.20;;;;;;5011277;28;20953;-73
2022/05/22 12:38:14;;;;;;;8.60;3.77;;;22.80;75.70;;;;;;5012005;28;20439;-73
2022/05/22 12:41:08;;;;;;;4.67;3.33;;;23.00;74.20;;;;;;5013045;28;20493;-73
2022/05/22 12:43:34;;;;;;;3.83;2.90;;;23.00;73.90;;;;;;5014379;28;20427;-72
2022/05/22 12:46:03;;;;;;;5.40;3.60;;;23.10;72.60;;;;;;4996734;28;20428;-73
2022/05/22 12:48:34;;;;;;;5.33;3.47;;;23.20;70.10;;;;;;4997108;28;20530;-73
2022/05/22 12:51:09;;;;;;;9.60;3.90;;;23.20;71.00;;;;;;5012878;28;20587;-73
2022/05/22 12:53:47;;;;;;;5.47;3.63;;;23.30;71.40;;;;;;4993731;28;20437;-73
2022/05/22 12:56:40;;;;;;;6.43;4.30;;;23.30;69.30;;;;;;5008263;28;20448;-74
2022/05/22 12:59:25;;;;;;;5.70;3.33;;;23.30;68.20;;;;;;5002267;28;20464;-73
2022/05/22 13:02:02;;;;;;;6.23;3.53;;;23.40;70.20;;;;;;5013209;28;20453;-76
2022/05/22 13:04:57;;;;;;;4.23;3.03;;;23.50;70.30;;;;;;4999323;28;20943;-72
2022/05/22 13:07:33;;;;;;;5.03;3.70;;;23.50;70.40;;;;;;5004550;28;20466;-74
2022/05/22 13:10:11;;;;;;;8.33;3.90;;;23.70;66.90;;;;;;5013424;28;20455;-73
2022/05/22 13:12:41;;;;;;;7.40;4.00;;;23.70;67.30;;;;;;5028365;28;20924;-74
2022/05/22 13:15:15;;;;;;;4.60;3.20;;;23.70;68.00;;;;;;5028801;28;20487;-74
2022/05/22 13:17:42;;;;;;;3.63;2.90;;;23.60;68.00;;;;;;5012505;28;20785;-74
2022/05/22 13:20:48;;;;;;;4.53;2.80;;;23.70;68.10;;;;;;5013490;28;20553;-74
2022/05/22 13:23:25;;;;;;;4.43;3.00;;;23.70;68.00;;;;;;5011599;28;20436;-74
2022/05/22 13:26:16;;;;;;;6.03;3.50;;;23.80;68.60;;;;;;4996379;28;20416;-74
2022/05/22 13:28:47;;;;;;;5.17;2.97;;;23.80;65.70;;;;;;5012455;28;20428;-74
2022/05/22 13:31:36;;;;;;;6.67;3.23;;;23.90;67.50;;;;;;5012594;28;20451;-74
2022/05/22 13:34:20;;;;;;;5.10;3.07;;;23.90;66.70;;;;;;5012229;28;20444;-74
2022/05/22 13:37:02;;;;;;;4.80;3.47;;;24.00;65.50;;;;;;4996082;28;20428;-74
2022/05/22 13:39:42;;;;;;;4.20;2.90;;;24.10;66.40;;;;;;5012702;28;20496;-73
2022/05/22 13:42:56;;;;;;;7.40;3.13;;;24.20;66.80;;;;;;5028726;28;20435;-74
2022/05/22 13:45:36;;;;;;;4.27;2.83;;;24.20;66.40;;;;;;4987815;28;20826;-74
2022/05/22 13:48:19;;;;;;;6.13;3.13;;;24.20;65.00;;;;;;5015797;28;20940;-73
2022/05/22 13:54:44;;;;;;;6.80;3.53;;;24.20;64.90;;;;;;5011286;28;20451;-73
2022/05/22 13:57:20;;;;;;;4.53;3.30;;;24.30;63.70;;;;;;5012911;28;20416;-73